TimeEST,TemperatureF,Dew PointF,Humidity,Sea Level PressureIn,VisibilityMPH,Wind Direction,Wind SpeedMPH,Gust SpeedMPH,PrecipitationIn,Events,Conditions,WindDirDegrees,DateUTC
12:53 AM,69.1,66.9,93,30.02,10.0,SSE,3.5,-,N/A,,Clear,150,2012-12-10 05:53:00
1:53 AM,69.1,66.9,93,30.01,9.0,Calm,Calm,-,N/A,,Clear,0,2012-12-10 06:53:00
2:42 AM,68.0,66.2,94,30.00,1.8,Calm,Calm,-,N/A,,Clear,0,2012-12-10 07:42:00
2:53 AM,66.0,64.9,96,30.00,0.5,Calm,Calm,-,N/A,Fog,Fog,0,2012-12-10 07:53:00
3:05 AM,66.2,64.4,94,29.99,1.0,Calm,Calm,-,N/A,,Partly Cloudy,0,2012-12-10 08:05:00
3:09 AM,66.2,64.4,94,29.99,3.0,Calm,Calm,-,N/A,,Partly Cloudy,0,2012-12-10 08:09:00
3:18 AM,66.2,64.4,94,29.99,2.5,Calm,Calm,-,N/A,,Scattered Clouds,0,2012-12-10 08:18:00
3:25 AM,66.2,66.2,100,29.99,10.0,Calm,Calm,-,N/A,,Scattered Clouds,0,2012-12-10 08:25:00
3:53 AM,66.0,64.9,96,29.99,8.0,Calm,Calm,-,N/A,,Partly Cloudy,0,2012-12-10 08:53:00
4:00 AM,66.2,64.4,94,29.98,6.0,Calm,Calm,-,N/A,,Scattered Clouds,0,2012-12-10 09:00:00
4:24 AM,66.2,64.4,94,29.99,9.0,Calm,Calm,-,N/A,,Mostly Cloudy,0,2012-12-10 09:24:00
4:53 AM,68.0,66.0,93,29.99,9.0,Calm,Calm,-,N/A,,Overcast,0,2012-12-10 09:53:00
5:36 AM,69.8,66.2,88,29.99,8.0,Calm,Calm,-,N/A,,Overcast,0,2012-12-10 10:36:00
5:51 AM,69.8,68.0,94,29.99,1.8,Calm,Calm,-,N/A,,Overcast,0,2012-12-10 10:51:00
5:53 AM,70.0,68.0,93,29.99,1.0,Calm,Calm,-,0.01,,Overcast,0,2012-12-10 10:53:00
5:57 AM,69.8,69.8,100,29.99,0.5,Calm,Calm,-,N/A,Fog,Fog,0,2012-12-10 10:57:00
6:08 AM,69.8,69.8,100,29.98,0.2,Calm,Calm,-,N/A,Fog,Fog,0,2012-12-10 11:08:00
6:53 AM,71.1,70.0,96,29.99,0.2,SSW,4.6,-,N/A,Fog,Fog,210,2012-12-10 11:53:00
7:53 AM,72.0,71.1,97,30.01,0.2,SSW,4.6,-,N/A,Fog,Fog,200,2012-12-10 12:53:00
8:36 AM,73.4,71.6,94,30.01,0.8,SSW,4.6,-,N/A,,Overcast,200,2012-12-10 13:36:00
8:45 AM,73.4,73.4,100,30.01,1.2,South,4.6,-,N/A,,Overcast,190,2012-12-10 13:45:00
8:53 AM,73.9,73.0,97,30.01,2.0,South,5.8,-,N/A,,Overcast,190,2012-12-10 13:53:00
9:01 AM,73.4,73.4,100,30.01,5.0,South,4.6,-,N/A,,Overcast,180,2012-12-10 14:01:00
9:21 AM,75.2,73.4,94,30.01,9.0,South,6.9,-,N/A,,Mostly Cloudy,190,2012-12-10 14:21:00
9:44 AM,77.0,73.4,89,30.01,10.0,SW,6.9,-,N/A,,Mostly Cloudy,220,2012-12-10 14:44:00
9:51 AM,77.0,73.4,89,30.02,7.0,SW,6.9,-,N/A,,Overcast,220,2012-12-10 14:51:00
9:53 AM,77.0,73.0,88,30.01,7.0,SW,5.8,-,N/A,,Overcast,220,2012-12-10 14:53:00
10:28 AM,80.6,73.4,79,30.01,10.0,SSW,9.2,17.3,N/A,,Mostly Cloudy,200,2012-12-10 15:28:00
10:53 AM,79.0,73.0,82,30.00,10.0,SSW,6.9,-,N/A,,Mostly Cloudy,210,2012-12-10 15:53:00
11:53 AM,84.9,73.0,67,29.97,10.0,SSW,10.4,-,N/A,,Overcast,200,2012-12-10 16:53:00
12:53 PM,84.0,71.1,65,29.94,10.0,South,10.4,-,N/A,,Mostly Cloudy,180,2012-12-10 17:53:00
1:00 PM,84.2,71.6,66,29.94,10.0,South,11.5,-,N/A,,Mostly Cloudy,170,2012-12-10 18:00:00
1:53 PM,84.9,72.0,65,29.92,10.0,SSW,8.1,-,N/A,,Scattered Clouds,210,2012-12-10 18:53:00
2:53 PM,84.9,70.0,61,29.90,10.0,South,11.5,-,N/A,,Mostly Cloudy,180,2012-12-10 19:53:00
3:53 PM,82.0,73.0,74,29.88,10.0,SSE,12.7,-,N/A,,Mostly Cloudy,150,2012-12-10 20:53:00
4:53 PM,80.1,73.9,81,29.89,10.0,SE,9.2,-,0.00,Thunderstorm,Thunderstorm,140,2012-12-10 21:53:00
5:11 PM,78.8,71.6,78,29.90,10.0,WNW,9.2,21.9,N/A,Thunderstorm,Thunderstorm,290,2012-12-10 22:11:00
5:40 PM,77.0,71.6,83,29.91,10.0,Calm,Calm,-,N/A,Thunderstorm,Thunderstorm,0,2012-12-10 22:40:00
5:53 PM,75.9,70.0,82,29.91,10.0,Calm,Calm,-,N/A,,Mostly Cloudy,0,2012-12-10 22:53:00
6:44 PM,78.8,71.6,78,29.91,10.0,SSE,8.1,-,0.00,Rain,Light Rain,160,2012-12-10 23:44:00
6:53 PM,79.0,73.0,82,29.92,10.0,SSW,8.1,-,0.00,,Mostly Cloudy,210,2012-12-10 23:53:00
7:53 PM,77.0,73.0,88,29.94,10.0,South,6.9,-,0.02,,Partly Cloudy,170,2012-12-11 00:53:00
8:53 PM,77.0,73.0,88,29.94,10.0,South,8.1,-,N/A,,Mostly Cloudy,180,2012-12-11 01:53:00
9:53 PM,77.0,73.0,88,29.95,10.0,South,6.9,-,0.00,,Clear,180,2012-12-11 02:53:00
10:53 PM,75.9,73.0,91,29.95,10.0,SSW,5.8,-,N/A,,Mostly Cloudy,200,2012-12-11 03:53:00
11:53 PM,75.9,73.0,91,29.93,10.0,SSW,9.2,-,0.00,,Partly Cloudy,200,2012-12-11 04:53:00